Time;durP1;ratioP1;P1;durP2;ratioP2;P2;SDS_P1;SDS_P2;PMS_P1;PMS_P2;Temp;Humidity;BMP_temperature;BMP_pressure;BME280_temperature;BME280_humidity;BME280_pressure;Samples;Min_cycle;Max_cycle;Signal;HPM_P1;HPM_P2
2021/07/28 00:02:19;;;;;;;16.33;12.85;;;15.70;99.90;;;;;;5029911;28;20034;-67
2021/07/28 00:04:45;;;;;;;20.50;13.77;;;15.60;99.90;;;;;;5031515;28;20454;-67
2021/07/28 00:07:11;;;;;;;18.25;12.70;;;15.60;99.90;;;;;;5032891;28;20551;-67
2021/07/28 00:09:37;;;;;;;22.17;12.50;;;15.60;99.90;;;;;;5022097;28;20044;-67
2021/07/28 00:12:02;;;;;;;17.95;13.27;;;15.60;99.90;;;;;;5028611;28;20096;-67
2021/07/28 00:14:28;;;;;;;19.63;13.77;;;15.60;99.90;;;;;;5030125;28;20049;-67
2021/07/28 00:16:54;;;;;;;17.25;13.02;;;15.50;99.90;;;;;;5032726;28;20130;-67
2021/07/28 00:19:24;;;;;;;17.85;13.07;;;15.50;99.90;;;;;;5029883;28;20159;-66
2021/07/28 00:24:34;;;;;;;18.55;13.50;;;15.50;99.90;;;;;;5024385;28;20048;-67
2021/07/28 00:27:00;;;;;;;20.65;13.95;;;15.50;99.90;;;;;;5031705;28;20418;-67
2021/07/28 00:29:29;;;;;;;18.70;13.35;;;15.50;99.90;;;;;;5030749;28;20399;-67
2021/07/28 00:31:56;;;;;;;17.38;13.20;;;15.50;99.90;;;;;;5028111;28;20013;-67
2021/07/28 00:34:22;;;;;;;19.70;12.75;;;15.40;99.90;;;;;;5033461;28;20082;-67
2021/07/28 00:36:48;;;;;;;16.77;12.93;;;15.40;99.90;;;;;;5029859;28;20458;-67
2021/07/28 00:39:13;;;;;;;18.88;13.40;;;15.40;99.90;;;;;;5031676;28;20029;-67
2021/07/28 00:41:40;;;;;;;17.75;13.13;;;15.40;99.90;;;;;;5031282;28;20034;-67
2021/07/28 00:44:06;;;;;;;20.48;13.10;;;15.40;99.90;;;;;;5032496;28;20030;-67
2021/07/28 00:46:31;;;;;;;20.23;13.65;;;15.40;99.90;;;;;;5027758;28;20030;-67
2021/07/28 00:48:57;;;;;;;21.02;13.02;;;15.30;99.90;;;;;;5028166;28;20029;-67
2021/07/28 00:51:23;;;;;;;19.25;13.45;;;15.40;99.90;;;;;;5028773;28;20029;-67
2021/07/28 00:53:48;;;;;;;19.88;13.05;;;15.40;99.90;;;;;;5031057;28;20032;-67
2021/07/28 00:56:18;;;;;;;20.60;14.75;;;15.30;99.90;;;;;;5031928;28;20029;-67
2021/07/28 00:58:43;;;;;;;21.90;13.55;;;15.30;99.90;;;;;;5027660;28;20083;-66
2021/07/28 01:01:09;;;;;;;17.73;13.73;;;15.30;99.90;;;;;;5030467;28;20026;-67
2021/07/28 01:03:35;;;;;;;22.48;13.90;;;15.30;99.90;;;;;;5034103;28;20034;-67
2021/07/28 01:06:00;;;;;;;19.27;13.32;;;15.30;99.90;;;;;;5030419;28;20548;-67
2021/07/28 01:08:26;;;;;;;20.25;13.93;;;15.30;99.90;;;;;;5028804;28;20088;-67
2021/07/28 01:10:54;;;;;;;18.30;13.05;;;15.30;99.90;;;;;;5036322;28;20049;-67
2021/07/28 01:13:26;;;;;;;21.27;13.63;;;15.20;99.90;;;;;;5027410;28;20033;-67
2021/07/28 01:16:06;;;;;;;;;;;15.20;99.90;;;;;;5035529;28;20484;-67
2021/07/28 01:18:33;;;;;;;19.20;12.52;;;15.20;99.90;;;;;;5031530;28;19916;-67
2021/07/28 01:20:59;;;;;;;18.33;12.00;;;15.20;99.90;;;;;;5028986;28;20484;-67
2021/07/28 01:23:26;;;;;;;21.23;13.38;;;15.10;99.90;;;;;;5027831;28;20033;-67
2021/07/28 01:25:53;;;;;;;17.55;12.07;;;15.20;99.90;;;;;;5030673;28;20115;-67
2021/07/28 01:28:24;;;;;;;17.20;11.95;;;15.10;99.90;;;;;;5031112;28;20045;-68
2021/07/28 01:31:07;;;;;;;21.15;12.65;;;15.10;99.90;;;;;;5033708;28;20102;-68
2021/07/28 01:33:35;;;;;;;18.30;12.52;;;15.20;99.90;;;;;;5033896;28;20512;-68
2021/07/28 01:36:03;;;;;;;18.05;12.30;;;15.10;99.90;;;;;;5035587;28;20115;-67
2021/07/28 01:38:29;;;;;;;16.45;11.65;;;15.20;99.90;;;;;;5032152;28;20516;-68
2021/07/28 01:40:56;;;;;;;17.35;12.38;;;15.20;99.90;;;;;;5034102;28;20163;-68
2021/07/28 01:43:22;;;;;;;16.52;11.50;;;15.20;99.90;;;;;;5033246;28;20103;-68
2021/07/28 01:45:48;;;;;;;18.02;11.45;;;15.20;99.90;;;;;;5035337;28;20496;-67
2021/07/28 01:48:14;;;;;;;18.48;11.80;;;15.20;99.90;;;;;;5031035;28;20476;-68
2021/07/28 01:50:39;;;;;;;17.98;12.48;;;15.20;99.90;;;;;;5032870;28;20036;-68
2021/07/28 01:53:05;;;;;;;19.05;12.48;;;15.20;99.90;;;;;;5033546;28;20021;-68
2021/07/28 01:55:31;;;;;;;18.20;12.00;;;15.20;99.90;;;;;;5025368;28;20026;-67
2021/07/28 01:57:58;;;;;;;20.10;12.45;;;15.20;99.90;;;;;;5024116;28;20495;-68
2021/07/28 02:00:25;;;;;;;20.15;11.98;;;15.20;99.90;;;;;;5033436;28;20033;-67
2021/07/28 02:02:50;;;;;;;16.60;12.30;;;15.20;99.90;;;;;;5032360;28;20037;-67
2021/07/28 02:05:16;;;;;;;23.05;12.85;;;15.10;99.90;;;;;;5035582;28;20396;-67
2021/07/28 02:07:41;;;;;;;19.98;12.50;;;15.10;99.90;;;;;;5033713;28;20051;-68
2021/07/28 02:10:07;;;;;;;18.10;12.30;;;15.10;99.90;;;;;;5029233;28;20084;-68
2021/07/28 02:12:33;;;;;;;21.98;12.90;;;15.10;99.90;;;;;;5034833;28;20055;-68
2021/07/28 02:14:58;;;;;;;17.00;11.75;;;15.10;99.90;;;;;;5031959;28;20073;-68
2021/07/28 02:17:24;;;;;;;15.90;11.85;;;15.00;99.90;;;;;;5032460;28;20028;-67
2021/07/28 02:19:49;;;;;;;17.08;11.30;;;15.10;99.90;;;;;;5032138;28;20479;-68
2021/07/28 02:22:15;;;;;;;16.25;12.60;;;15.00;99.90;;;;;;5034831;28;20034;-67
2021/07/28 02:24:41;;;;;;;17.98;11.90;;;15.00;99.90;;;;;;5028805;28;20033;-68
2021/07/28 02:27:08;;;;;;;19.27;11.75;;;15.00;99.90;;;;;;5034642;28;20408;-68
2021/07/28 02:29:35;;;;;;;18.83;12.02;;;15.00;99.90;;;;;;5033565;28;20072;-68
2021/07/28 02:32:02;;;;;;;18.45;12.05;;;15.00;99.90;;;;;;5033416;28;20047;-68
2021/07/28 02:34:31;;;;;;;19.15;11.45;;;15.00;99.90;;;;;;5030162;28;20018;-68
2021/07/28 02:36:57;;;;;;;17.33;11.52;;;15.00;99.90;;;;;;5034097;28;20053;-68
2021/07/28 02:39:23;;;;;;;16.38;11.70;;;15.00;99.90;;;;;;5028497;28;20037;-68
2021/07/28 02:41:49;;;;;;;20.80;12.95;;;15.00;99.90;;;;;;5034024;28;20036;-68
2021/07/28 02:44:14;;;;;;;18.25;12.18;;;15.00;99.90;;;;;;5031782;28;20379;-68
2021/07/28 02:46:40;;;;;;;20.05;12.55;;;15.00;99.90;;;;;;5033933;28;20495;-67
2021/07/28 02:49:05;;;;;;;19.73;12.20;;;15.00;99.90;;;;;;5026209;28;20037;-68
2021/07/28 02:51:31;;;;;;;18.35;12.32;;;15.00;99.90;;;;;;5029542;28;20104;-68
2021/07/28 02:53:56;;;;;;;18.17;12.77;;;15.10;99.90;;;;;;5025530;28;20024;-67
2021/07/28 02:56:22;;;;;;;21.30;11.82;;;15.10;99.90;;;;;;5034289;28;20025;-67
2021/07/28 02:58:47;;;;;;;21.58;12.90;;;15.10;99.90;;;;;;5030034;28;21842;-67
2021/07/28 03:01:13;;;;;;;19.90;12.32;;;15.10;99.90;;;;;;5031488;28;20033;-67
2021/07/28 03:03:38;;;;;;;22.25;13.60;;;15.10;99.90;;;;;;5030119;28;20037;-67
2021/07/28 03:06:04;;;;;;;18.90;12.73;;;15.10;99.90;;;;;;5034083;28;20029;-67
2021/07/28 03:08:30;;;;;;;22.70;13.68;;;15.10;99.90;;;;;;5026729;28;20037;-67
2021/07/28 03:10:56;;;;;;;21.83;14.15;;;15.10;99.90;;;;;;5029792;28;20151;-68
2021/07/28 03:13:21;;;;;;;22.20;14.02;;;15.10;99.90;;;;;;5030623;28;20029;-68
2021/07/28 03:15:50;;;;;;;23.20;14.07;;;15.10;99.90;;;;;;5031782;28;20056;-68
2021/07/28 03:18:15;;;;;;;23.08;13.30;;;15.10;99.90;;;;;;5031833;28;20536;-67
2021/07/28 03:20:43;;;;;;;23.40;14.60;;;15.20;99.90;;;;;;5031560;28;20120;-67
2021/07/28 03:23:09;;;;;;;19.75;14.10;;;15.20;99.90;;;;;;5031011;28;20046;-68
2021/07/28 03:25:35;;;;;;;22.25;14.20;;;15.20;99.90;;;;;;5031092;28;20498;-68
2021/07/28 03:28:00;;;;;;;22.67;14.65;;;15.20;99.90;;;;;;5031401;28;20029;-68
2021/07/28 03:30:26;;;;;;;22.75;13.88;;;15.20;99.90;;;;;;5032550;28;20068;-68
2021/07/28 03:32:51;;;;;;;18.65;12.65;;;15.30;99.90;;;;;;5031562;28;20077;-68
2021/07/28 03:35:17;;;;;;;19.65;13.32;;;15.20;99.90;;;;;;5031863;28;20471;-68
2021/07/28 03:37:42;;;;;;;21.23;13.88;;;15.20;99.90;;;;;;5029108;28;20028;-68
2021/07/28 03:40:08;;;;;;;20.00;12.63;;;15.30;99.90;;;;;;5033102;28;20036;-67
2021/07/28 03:42:34;;;;;;;23.08;12.88;;;15.30;99.90;;;;;;5031059;28;20025;-68
2021/07/28 03:45:00;;;;;;;19.40;13.73;;;15.30;99.90;;;;;;5026905;28;20030;-68
2021/07/28 03:47:26;;;;;;;19.05;13.13;;;15.30;99.90;;;;;;5032508;28;20414;-68
2021/07/28 03:49:52;;;;;;;18.38;13.07;;;15.40;99.90;;;;;;5024292;28;20025;-67
2021/07/28 03:52:19;;;;;;;21.35;13.27;;;15.40;99.90;;;;;;5032682;28;20401;-68
2021/07/28 03:54:44;;;;;;;22.58;13.65;;;15.40;99.90;;;;;;5030753;28;20030;-67
2021/07/28 03:57:11;;;;;;;18.70;12.55;;;15.50;99.90;;;;;;5021667;28;20021;-68
2021/07/28 03:59:38;;;;;;;17.35;13.30;;;15.50;99.90;;;;;;5031472;28;20484;-68
2021/07/28 04:02:04;;;;;;;18.92;12.43;;;15.60;99.90;;;;;;5030179;28;20061;-68
2021/07/28 04:04:29;;;;;;;19.40;12.65;;;15.60;99.90;;;;;;5027893;28;20478;-68
2021/07/28 04:06:55;;;;;;;18.83;13.02;;;15.60;99.90;;;;;;5032722;28;20052;-68
2021/07/28 04:09:20;;;;;;;18.65;12.85;;;15.60;99.90;;;;;;5029435;28;20105;-68
2021/07/28 04:11:46;;;;;;;19.55;11.88;;;15.70;99.90;;;;;;5023248;28;20035;-68
2021/07/28 04:14:15;;;;;;;17.50;12.02;;;15.70;99.90;;;;;;5030299;28;20037;-68
2021/07/28 04:16:40;;;;;;;17.80;11.80;;;15.70;99.90;;;;;;5030796;28;20030;-69
2021/07/28 04:19:06;;;;;;;18.10;12.30;;;15.70;99.90;;;;;;5030106;28;20037;-68
2021/07/28 04:21:31;;;;;;;20.88;12.45;;;15.80;99.90;;;;;;5021875;28;20107;-69
2021/07/28 04:23:57;;;;;;;18.20;11.55;;;15.80;99.90;;;;;;5029843;28;20443;-68
2021/07/28 04:26:22;;;;;;;18.90;12.18;;;15.80;99.90;;;;;;5029043;28;20405;-68
2021/07/28 04:28:48;;;;;;;18.65;11.60;;;15.80;99.90;;;;;;5028047;28;20049;-69
2021/07/28 04:31:14;;;;;;;18.60;12.23;;;15.80;99.90;;;;;;5028018;28;20025;-69
2021/07/28 04:33:39;;;;;;;17.20;12.55;;;15.80;99.90;;;;;;5029021;28;20084;-68
2021/07/28 04:36:05;;;;;;;17.08;11.98;;;15.80;99.90;;;;;;5024563;28;20053;-69
2021/07/28 04:38:30;;;;;;;17.63;12.50;;;15.80;99.90;;;;;;5036881;28;20034;-68
2021/07/28 04:40:56;;;;;;;16.98;11.63;;;15.90;99.90;;;;;;5037224;28;20435;-68
2021/07/28 04:43:21;;;;;;;17.95;12.65;;;15.90;99.90;;;;;;5029301;28;20566;-69
2021/07/28 04:45:47;;;;;;;19.75;12.52;;;15.90;99.90;;;;;;5031375;28;20040;-68
2021/07/28 04:48:12;;;;;;;18.13;12.18;;;16.00;99.90;;;;;;5032933;28;20108;-69
2021/07/28 04:50:38;;;;;;;17.38;12.32;;;16.00;99.90;;;;;;5025547;28;20484;-68
2021/07/28 04:53:04;;;;;;;18.30;12.18;;;16.10;99.90;;;;;;5032549;28;20021;-68
2021/07/28 04:55:29;;;;;;;17.88;12.65;;;16.10;99.90;;;;;;5036235;28;20049;-68
2021/07/28 04:57:56;;;;;;;17.13;12.65;;;16.10;99.90;;;;;;5036168;28;20029;-68
2021/07/28 05:00:21;;;;;;;15.63;11.60;;;16.20;99.90;;;;;;5035165;28;20032;-69
2021/07/28 05:02:47;;;;;;;18.35;12.52;;;16.20;99.90;;;;;;5032551;28;20029;-68
2021/07/28 05:05:12;;;;;;;18.63;12.10;;;16.30;99.90;;;;;;5029151;28;20028;-68
2021/07/28 05:07:38;;;;;;;18.40;13.13;;;16.30;99.90;;;;;;5028778;28;20540;-68
2021/07/28 05:10:04;;;;;;;20.40;12.25;;;16.40;99.90;;;;;;5033093;28;20033;-68
2021/07/28 05:12:30;;;;;;;19.00;13.57;;;16.40;99.90;;;;;;5022975;28;20030;-69
2021/07/28 05:14:55;;;;;;;18.90;12.57;;;16.40;99.90;;;;;;5018158;28;20435;-69
2021/07/28 05:17:23;;;;;;;16.83;12.50;;;16.50;99.90;;;;;;5026988;28;20392;-69
2021/07/28 05:19:49;;;;;;;18.75;12.90;;;16.50;99.90;;;;;;5032346;28;20032;-69
2021/07/28 05:22:14;;;;;;;19.75;13.35;;;16.50;99.90;;;;;;5032790;28;20025;-69
2021/07/28 05:24:40;;;;;;;20.50;12.82;;;16.50;99.90;;;;;;5036378;28;20029;-69
2021/07/28 05:27:05;;;;;;;17.55;13.23;;;16.60;99.90;;;;;;5034194;28;20495;-68
2021/07/28 05:29:31;;;;;;;19.48;13.48;;;16.60;99.90;;;;;;5034236;28;20029;-69
2021/07/28 05:31:56;;;;;;;17.45;12.93;;;16.60;99.90;;;;;;5027716;28;20120;-69
2021/07/28 05:34:22;;;;;;;21.08;13.18;;;16.70;99.90;;;;;;5026088;28;20025;-69
2021/07/28 05:36:47;;;;;;;18.88;13.75;;;16.80;99.90;;;;;;5027282;28;20426;-69
2021/07/28 05:39:13;;;;;;;21.33;15.30;;;16.80;99.90;;;;;;5033000;28;20040;-70
2021/07/28 05:41:38;;;;;;;18.38;13.90;;;16.80;99.90;;;;;;5029724;28;21803;-69
2021/07/28 05:44:07;;;;;;;21.35;14.70;;;16.90;99.90;;;;;;5030097;28;20073;-69
2021/07/28 05:46:34;;;;;;;22.45;14.85;;;17.00;99.90;;;;;;5030327;28;20074;-69
2021/07/28 05:49:00;;;;;;;20.92;14.35;;;17.10;99.90;;;;;;5026523;28;20116;-69
2021/07/28 05:51:25;;;;;;;19.85;14.07;;;17.10;99.90;;;;;;5031767;28;20523;-69
2021/07/28 05:53:51;;;;;;;22.75;14.82;;;17.10;99.90;;;;;;5032605;28;20018;-69
2021/07/28 05:56:19;;;;;;;20.50;14.45;;;17.20;99.90;;;;;;5028679;28;20043;-69
2021/07/28 05:58:45;;;;;;;21.83;15.32;;;17.30;99.90;;;;;;5027390;28;20026;-69
2021/07/28 06:01:10;;;;;;;23.17;14.82;;;17.30;99.90;;;;;;5026381;28;20060;-69
2021/07/28 06:03:36;;;;;;;22.20;15.30;;;17.40;99.90;;;;;;5019679;28;20373;-67
2021/07/28 06:06:02;;;;;;;17.90;13.63;;;17.40;99.90;;;;;;5034429;28;20029;-68
2021/07/28 06:08:27;;;;;;;20.42;15.05;;;17.40;99.90;;;;;;5031945;28;20028;-69
2021/07/28 06:10:53;;;;;;;20.90;15.13;;;17.50;99.90;;;;;;5034006;28;20056;-68
2021/07/28 06:13:19;;;;;;;24.83;15.40;;;17.50;99.90;;;;;;5025130;28;20034;-68
2021/07/28 06:15:47;;;;;;;23.92;16.88;;;17.60;99.90;;;;;;5033008;28;20487;-69
2021/07/28 06:18:13;;;;;;;19.48;15.43;;;17.70;99.90;;;;;;5034545;28;20026;-69
2021/07/28 06:20:39;;;;;;;20.73;16.05;;;17.80;99.90;;;;;;5035329;28;20036;-70
2021/07/28 06:23:04;;;;;;;18.73;15.20;;;17.90;99.90;;;;;;5033412;28;20125;-68
2021/07/28 06:25:30;;;;;;;20.70;15.48;;;18.00;99.90;;;;;;5028715;28;20026;-69
2021/07/28 06:27:55;;;;;;;22.73;16.52;;;18.00;99.90;;;;;;5030486;28;20084;-69
2021/07/28 06:30:21;;;;;;;20.73;16.95;;;18.10;99.90;;;;;;5032045;28;20139;-70
2021/07/28 06:32:47;;;;;;;25.35;16.17;;;18.10;99.90;;;;;;5032218;28;20071;-70
2021/07/28 06:35:12;;;;;;;19.85;15.63;;;18.20;99.90;;;;;;5029101;28;20026;-69
2021/07/28 06:37:38;;;;;;;23.25;15.13;;;18.30;99.90;;;;;;5031307;28;20021;-70
2021/07/28 06:40:04;;;;;;;20.58;14.45;;;18.30;99.90;;;;;;5032718;28;20029;-68
2021/07/28 06:42:29;;;;;;;16.63;13.30;;;18.30;99.90;;;;;;5032498;28;20065;-68
2021/07/28 06:44:55;;;;;;;21.45;14.52;;;18.30;99.90;;;;;;5033387;28;20067;-69
2021/07/28 06:47:20;;;;;;;16.90;13.77;;;18.30;99.90;;;;;;5030815;28;20102;-69
2021/07/28 06:49:46;;;;;;;15.55;13.10;;;18.40;99.90;;;;;;5034675;28;20041;-69
2021/07/28 06:52:11;;;;;;;17.95;12.70;;;18.50;99.90;;;;;;5028000;28;20026;-69
2021/07/28 06:54:37;;;;;;;18.73;12.00;;;18.50;99.90;;;;;;5033021;28;20029;-69
2021/07/28 06:57:03;;;;;;;15.60;11.10;;;18.60;99.90;;;;;;5032889;28;20021;-69
2021/07/28 06:59:28;;;;;;;16.63;12.07;;;18.60;99.90;;;;;;5031555;28;20037;-69
2021/07/28 07:01:54;;;;;;;14.45;11.63;;;18.60;99.90;;;;;;5025411;28;20033;-70
2021/07/28 07:04:19;;;;;;;15.27;10.32;;;18.60;99.90;;;;;;5028811;28;20065;-69
2021/07/28 07:06:45;;;;;;;13.40;9.68;;;18.70;99.90;;;;;;5029270;28;20037;-70
2021/07/28 07:09:10;;;;;;;11.80;9.40;;;18.80;99.90;;;;;;5031745;28;20507;-69
2021/07/28 07:11:35;;;;;;;14.00;9.45;;;18.80;99.90;;;;;;5033735;28;20032;-70
2021/07/28 07:14:01;;;;;;;11.10;8.45;;;18.90;99.90;;;;;;5032935;28;20574;-69
2021/07/28 07:16:27;;;;;;;13.90;8.25;;;19.00;99.90;;;;;;5031576;28;20032;-69
2021/07/28 07:18:52;;;;;;;11.10;7.60;;;19.00;99.90;;;;;;5031856;28;20025;-69
2021/07/28 07:21:18;;;;;;;11.30;8.63;;;19.00;99.70;;;;;;5032331;28;20097;-70
2021/07/28 07:23:43;;;;;;;11.13;7.45;;;19.00;99.40;;;;;;5033956;28;20124;-69
2021/07/28 07:26:09;;;;;;;13.25;8.35;;;19.00;99.30;;;;;;5018718;28;20419;-70
2021/07/28 07:28:35;;;;;;;9.40;7.85;;;19.00;99.00;;;;;;5032772;28;20117;-69
2021/07/28 07:31:01;;;;;;;14.00;8.30;;;19.00;98.80;;;;;;5034137;28;20460;-68
2021/07/28 07:36:10;;;;;;;13.70;7.20;;;19.10;98.60;;;;;;5032444;28;20026;-70
2021/07/28 07:38:36;;;;;;;13.60;6.93;;;19.20;98.50;;;;;;5032360;28;20033;-68
2021/07/28 07:41:02;;;;;;;7.72;5.82;;;19.40;98.30;;;;;;5029775;28;20037;-69
2021/07/28 07:43:27;;;;;;;8.02;5.40;;;19.50;97.60;;;;;;5014077;28;20392;-68
2021/07/28 07:45:55;;;;;;;7.50;5.05;;;19.60;97.20;;;;;;5027130;28;20036;-68
2021/07/28 07:48:22;;;;;;;9.88;4.90;;;19.70;97.10;;;;;;5029198;28;20025;-68
2021/07/28 07:50:47;;;;;;;7.38;4.40;;;19.90;96.60;;;;;;5033307;28;20018;-68
2021/07/28 07:53:13;;;;;;;7.97;4.72;;;19.90;94.90;;;;;;5032375;28;20040;-69
2021/07/28 07:55:38;;;;;;;6.35;4.55;;;19.80;94.50;;;;;;5050478;28;20018;-67
2021/07/28 07:58:04;;;;;;;9.32;5.25;;;19.70;94.70;;;;;;5027044;28;20041;-69
2021/07/28 08:00:30;;;;;;;4.90;3.90;;;19.70;94.90;;;;;;5031433;28;20017;-68
2021/07/28 08:02:55;;;;;;;4.75;3.92;;;19.70;94.80;;;;;;5031119;28;20028;-67
2021/07/28 08:05:21;;;;;;;8.38;4.55;;;19.90;94.50;;;;;;5035810;28;20533;-66
2021/07/28 08:07:47;;;;;;;6.72;4.15;;;19.90;93.70;;;;;;5035432;28;20018;-67
2021/07/28 08:10:13;;;;;;;9.50;3.80;;;20.00;93.70;;;;;;5032540;28;20506;-70
2021/07/28 08:12:39;;;;;;;8.15;4.53;;;20.20;93.80;;;;;;5030906;28;20032;-69
2021/07/28 08:15:05;;;;;;;6.50;3.40;;;20.40;93.40;;;;;;5030999;28;20158;-69
2021/07/28 08:17:30;;;;;;;4.20;3.03;;;20.60;93.00;;;;;;5021606;28;20029;-69
2021/07/28 08:19:57;;;;;;;4.95;3.40;;;20.80;92.40;;;;;;5028496;28;20018;-68
2021/07/28 08:22:22;;;;;;;6.15;3.55;;;20.80;91.50;;;;;;5019493;28;20030;-69
2021/07/28 08:24:48;;;;;;;6.75;3.03;;;20.90;91.30;;;;;;5014722;28;20543;-69
2021/07/28 08:27:13;;;;;;;6.75;3.38;;;20.80;91.60;;;;;;5022981;28;20039;-69
2021/07/28 08:29:39;;;;;;;5.35;2.90;;;20.70;91.20;;;;;;5031716;28;20025;-69
2021/07/28 08:32:04;;;;;;;5.72;2.40;;;20.70;91.50;;;;;;5030192;28;20468;-70
2021/07/28 08:34:30;;;;;;;4.90;2.85;;;20.70;91.60;;;;;;5031571;28;20025;-69
2021/07/28 08:36:55;;;;;;;7.63;3.13;;;20.80;91.40;;;;;;5030075;28;20030;-69
2021/07/28 08:39:21;;;;;;;5.93;2.80;;;20.80;91.40;;;;;;5033008;28;20032;-69
2021/07/28 08:41:48;;;;;;;5.40;2.47;;;20.90;90.70;;;;;;5032437;28;20122;-69
2021/07/28 08:44:18;;;;;;;6.25;2.50;;;20.80;90.60;;;;;;5030909;28;20034;-68
2021/07/28 08:46:44;;;;;;;4.93;2.15;;;20.90;90.40;;;;;;5029867;28;20041;-68
2021/07/28 08:49:13;;;;;;;3.65;2.08;;;21.00;90.60;;;;;;5030457;28;20541;-68
2021/07/28 08:51:42;;;;;;;5.18;2.67;;;21.20;90.30;;;;;;5032034;28;20108;-68
2021/07/28 08:54:07;;;;;;;3.50;1.85;;;21.30;90.30;;;;;;5026749;28;20025;-70
2021/07/28 08:56:39;;;;;;;5.63;1.75;;;21.40;89.20;;;;;;5031930;28;20021;-69
2021/07/28 08:59:05;;;;;;;5.30;1.80;;;21.30;88.30;;;;;;5031518;28;20384;-69
2021/07/28 09:01:30;;;;;;;4.38;1.38;;;21.30;88.50;;;;;;5030289;28;20272;-70
2021/07/28 09:03:56;;;;;;;3.83;1.67;;;21.40;88.90;;;;;;5031807;28;20479;-69
2021/07/28 09:06:28;;;;;;;3.20;1.58;;;21.60;87.80;;;;;;5022824;28;20075;-68
2021/07/28 09:08:57;;;;;;;9.60;1.42;;;21.70;86.50;;;;;;5028124;28;20499;-70
2021/07/28 09:11:23;;;;;;;4.68;1.45;;;21.70;86.20;;;;;;5026641;28;20038;-69
2021/07/28 09:13:48;;;;;;;5.10;1.17;;;21.70;85.70;;;;;;5012849;28;20061;-69
2021/07/28 09:16:16;;;;;;;5.30;1.58;;;21.70;85.20;;;;;;5026389;28;20033;-69
2021/07/28 09:18:46;;;;;;;4.75;1.20;;;21.60;85.90;;;;;;5030324;28;20025;-67
2021/07/28 09:21:26;;;;;;;5.00;1.45;;;21.60;86.60;;;;;;5029963;28;20075;-68
2021/07/28 09:24:08;;;;;;;3.30;1.20;;;21.90;85.80;;;;;;5020973;28;20450;-67
2021/07/28 09:26:43;;;;;;;4.85;1.52;;;22.00;86.60;;;;;;5034432;28;20053;-66
2021/07/28 09:29:14;;;;;;;3.85;1.20;;;22.00;85.10;;;;;;5032005;28;20133;-68
2021/07/28 09:32:00;;;;;;;3.97;1.25;;;22.00;85.20;;;;;;5030322;28;20072;-69
2021/07/28 09:34:25;;;;;;;5.07;1.38;;;22.00;85.30;;;;;;5035162;28;20095;-68
2021/07/28 09:36:55;;;;;;;4.05;1.13;;;21.90;83.50;;;;;;5034109;28;20022;-69
2021/07/28 09:39:31;;;;;;;4.97;1.00;;;21.80;83.80;;;;;;5035237;28;20471;-68
2021/07/28 09:41:59;;;;;;;2.45;1.00;;;21.60;84.00;;;;;;5035567;28;20506;-70
2021/07/28 09:44:25;;;;;;;2.67;1.10;;;21.60;84.80;;;;;;5027969;28;20037;-69
2021/07/28 09:47:03;;;;;;;2.63;0.95;;;21.70;84.40;;;;;;5027712;28;20498;-69
2021/07/28 09:49:29;;;;;;;2.13;0.93;;;21.90;83.90;;;;;;5031949;28;20029;-69
2021/07/28 09:51:55;;;;;;;5.18;1.40;;;22.10;83.50;;;;;;5033479;28;20029;-69
2021/07/28 09:54:20;;;;;;;4.03;0.90;;;22.20;83.00;;;;;;5026482;28;20032;-70
2021/07/28 09:56:58;;;;;;;2.78;0.90;;;22.20;81.20;;;;;;5020945;28;20024;-70
2021/07/28 09:59:24;;;;;;;5.78;1.42;;;22.20;81.80;;;;;;5031199;28;20483;-70
2021/07/28 10:01:51;;;;;;;6.10;1.30;;;22.30;82.70;;;;;;5031372;28;20787;-68
2021/07/28 10:04:19;;;;;;;2.65;1.23;;;22.30;82.10;;;;;;5022843;28;20029;-69
2021/07/28 10:06:47;;;;;;;6.55;1.30;;;22.30;81.10;;;;;;5031080;28;20117;-69
2021/07/28 10:09:16;;;;;;;3.72;0.90;;;22.30;81.40;;;;;;5027911;28;20500;-70
2021/07/28 10:11:47;;;;;;;3.53;1.10;;;22.40;82.10;;;;;;5030033;28;20069;-69
2021/07/28 10:14:16;;;;;;;1.88;0.85;;;22.60;80.90;;;;;;5033200;28;20125;-69
2021/07/28 10:16:42;;;;;;;2.53;0.75;;;22.70;81.10;;;;;;5035127;28;20419;-67
2021/07/28 10:19:09;;;;;;;2.15;0.88;;;22.80;80.90;;;;;;5034417;28;20025;-68
2021/07/28 10:21:36;;;;;;;7.03;1.35;;;23.00;80.40;;;;;;5034963;28;20037;-67
2021/07/28 10:24:03;;;;;;;2.78;0.90;;;23.10;78.00;;;;;;5034592;28;20113;-68
2021/07/28 10:26:36;;;;;;;2.97;0.90;;;23.00;78.70;;;;;;5033467;28;20037;-67
2021/07/28 10:29:02;;;;;;;3.58;0.98;;;23.10;78.20;;;;;;5034812;28;20025;-68
2021/07/28 10:31:28;;;;;;;5.97;0.90;;;23.10;76.10;;;;;;5032906;28;20100;-69
2021/07/28 10:33:57;;;;;;;3.85;0.88;;;22.80;76.50;;;;;;5029089;28;20066;-68
2021/07/28 10:36:46;;;;;;;2.10;0.70;;;22.80;78.50;;;;;;5016569;28;20377;-68
2021/07/28 10:39:38;;;;;;;1.85;0.80;;;23.00;78.30;;;;;;5013953;28;20017;-69
2021/07/28 10:42:21;;;;;;;2.25;0.82;;;23.20;77.30;;;;;;5026545;28;20526;-69
2021/07/28 10:45:02;;;;;;;2.47;0.70;;;23.20;75.10;;;;;;5027176;28;20025;-68
2021/07/28 10:47:45;;;;;;;3.10;0.90;;;23.10;75.00;;;;;;5030416;28;20048;-70
2021/07/28 10:50:22;;;;;;;3.05;1.02;;;23.00;76.50;;;;;;5029897;28;20021;-69
2021/07/28 10:52:52;;;;;;;6.53;1.40;;;23.00;76.20;;;;;;5034390;28;20025;-68
2021/07/28 10:55:20;;;;;;;2.30;0.75;;;23.00;75.60;;;;;;5028553;28;20037;-68
2021/07/28 10:57:48;;;;;;;2.65;0.68;;;22.90;75.20;;;;;;5026370;28;20112;-69
2021/07/28 11:00:42;;;;;;;3.22;0.75;;;22.90;75.90;;;;;;5029897;28;20026;-68
2021/07/28 11:03:08;;;;;;;3.22;0.70;;;22.90;76.30;;;;;;5032805;28;20033;-68
2021/07/28 11:05:48;;;;;;;2.25;0.63;;;23.00;74.80;;;;;;5034415;28;20018;-68
2021/07/28 11:08:19;;;;;;;2.03;0.70;;;23.20;75.00;;;;;;5029299;28;20030;-67
2021/07/28 11:10:45;;;;;;;3.37;0.73;;;23.50;74.40;;;;;;5034175;28;20029;-69
2021/07/28 11:13:15;;;;;;;4.35;0.90;;;23.70;72.80;;;;;;5034390;28;20037;-68
2021/07/28 11:15:59;;;;;;;2.25;0.82;;;23.70;71.50;;;;;;5033420;28;20041;-67
2021/07/28 11:18:31;;;;;;;2.03;1.00;;;23.50;70.60;;;;;;5033487;28;20435;-69
2021/07/28 11:21:23;;;;;;;3.75;0.85;;;23.20;71.10;;;;;;5033721;28;20535;-68
2021/07/28 11:24:03;;;;;;;3.10;0.70;;;22.90;72.50;;;;;;5026954;28;20040;-68
2021/07/28 11:26:32;;;;;;;1.75;0.60;;;22.90;72.40;;;;;;5027462;28;20041;-68
2021/07/28 11:29:00;;;;;;;1.58;0.60;;;22.90;73.00;;;;;;5032867;28;20388;-68
2021/07/28 11:31:32;;;;;;;3.28;0.60;;;23.00;72.80;;;;;;5033344;28;20053;-68
2021/07/28 11:34:05;;;;;;;1.83;0.77;;;23.00;71.60;;;;;;5031526;28;20414;-68
2021/07/28 11:36:32;;;;;;;2.65;0.60;;;22.90;71.70;;;;;;5033224;28;20057;-68
2021/07/28 11:38:58;;;;;;;2.13;0.80;;;22.70;71.80;;;;;;5030975;28;20384;-68
2021/07/28 11:41:23;;;;;;;5.63;1.13;;;22.50;72.10;;;;;;5033079;28;20029;-67
2021/07/28 11:43:55;;;;;;;1.40;0.60;;;22.30;72.00;;;;;;5032705;28;20495;-69
2021/07/28 11:46:21;;;;;;;2.95;0.55;;;22.20;72.10;;;;;;5031673;28;20043;-69
2021/07/28 11:48:52;;;;;;;4.07;0.70;;;22.30;73.20;;;;;;5029573;28;20062;-67
2021/07/28 11:51:28;;;;;;;7.95;0.85;;;22.50;72.50;;;;;;5030996;28;20029;-67
2021/07/28 11:54:10;;;;;;;2.95;0.70;;;22.60;72.00;;;;;;5031880;28;20099;-68
2021/07/28 11:56:37;;;;;;;2.08;1.00;;;22.70;71.60;;;;;;5031716;28;20021;-67
2021/07/28 11:59:02;;;;;;;5.97;0.90;;;22.60;72.30;;;;;;5033074;28;20524;-68
2021/07/28 12:01:33;;;;;;;2.88;0.70;;;22.50;71.80;;;;;;5027730;28;20144;-67
2021/07/28 12:04:10;;;;;;;1.88;0.73;;;22.40;72.80;;;;;;5028736;28;20079;-68
2021/07/28 12:06:43;;;;;;;3.35;0.70;;;22.40;73.60;;;;;;5032142;28;20033;-69
2021/07/28 12:09:14;;;;;;;2.40;0.68;;;22.50;73.80;;;;;;5033327;28;20472;-67
2021/07/28 12:11:54;;;;;;;3.07;0.80;;;22.60;74.00;;;;;;5032541;28;20074;-69
2021/07/28 12:14:39;;;;;;;4.80;0.68;;;22.90;73.80;;;;;;5032362;28;20289;-68
2021/07/28 12:17:21;;;;;;;2.40;0.60;;;23.10;72.40;;;;;;5030184;28;20519;-68
2021/07/28 12:19:51;;;;;;;4.88;0.80;;;23.00;71.20;;;;;;5020891;28;20053;-69
2021/07/28 12:22:42;;;;;;;4.43;0.60;;;22.90;70.90;;;;;;5029421;28;20065;-68
2021/07/28 12:25:25;;;;;;;2.22;0.88;;;22.70;71.70;;;;;;5032285;28;20039;-68
2021/07/28 12:27:56;;;;;;;2.47;0.70;;;22.40;72.00;;;;;;5031576;28;20037;-67
2021/07/28 12:30:26;;;;;;;3.63;1.20;;;22.20;73.00;;;;;;5030649;28;20037;-68
2021/07/28 12:33:12;;;;;;;5.30;1.00;;;22.20;73.40;;;;;;5031066;28;20026;-68
2021/07/28 12:35:47;;;;;;;3.88;0.80;;;22.40;73.10;;;;;;5032925;28;20037;-69
2021/07/28 12:38:21;;;;;;;2.50;0.80;;;22.50;73.90;;;;;;5026217;28;20079;-69
2021/07/28 12:40:46;;;;;;;2.45;0.68;;;22.60;73.30;;;;;;5026344;28;20052;-70
2021/07/28 12:43:13;;;;;;;5.82;0.90;;;22.70;73.00;;;;;;5032851;28;20026;-69
2021/07/28 12:45:39;;;;;;;3.30;0.75;;;22.80;73.10;;;;;;5030611;28;20022;-70